sensor_id;sensor_type;location;lat;lon;timestamp;pressure;altitude;pressure_sealevel;temperature;humidity
18918;BME280;9591;52.742;13.650;2022-09-09T00:00:34;100521.94;;;15.51;100.00
18918;BME280;9591;52.742;13.650;2022-09-09T00:03:27;100512.13;;;15.35;100.00
18918;BME280;9591;52.742;13.650;2022-09-09T00:06:24;100521.41;;;15.28;100.00
18918;BME280;9591;52.742;13.650;2022-09-09T00:09:17;100519.75;;;15.26;100.00
18918;BME280;9591;52.742;13.650;2022-09-09T00:12:11;100523.47;;;15.23;100.00
18918;BME280;9591;52.742;13.650;2022-09-09T00:15:03;100531.72;;;15.19;100.00
18918;BME280;9591;52.742;13.650;2022-09-09T00:18:00;100522.06;;;15.16;100.00
18918;BME280;9591;52.742;13.650;2022-09-09T00:20:56;100518.66;;;15.30;100.00
18918;BME280;9591;52.742;13.650;2022-09-09T00:23:50;100523.88;;;15.16;100.00
18918;BME280;9591;52.742;13.650;2022-09-09T00:26:40;100515.97;;;15.14;100.00
18918;BME280;9591;52.742;13.650;2022-09-09T00:29:33;100512.84;;;15.06;100.00
18918;BME280;9591;52.742;13.650;2022-09-09T00:32:27;100519.38;;;15.00;100.00
18918;BME280;9591;52.742;13.650;2022-09-09T00:35:18;100521.41;;;14.95;100.00
18918;BME280;9591;52.742;13.650;2022-09-09T00:38:11;100512.81;;;14.90;100.00
18918;BME280;9591;52.742;13.650;2022-09-09T00:41:05;100515.88;;;14.83;100.00
18918;BME280;9591;52.742;13.650;2022-09-09T00:43:57;100516.91;;;14.80;100.00
18918;BME280;9591;52.742;13.650;2022-09-09T00:47:04;100525.06;;;14.77;100.00
18918;BME280;9591;52.742;13.650;2022-09-09T00:50:00;100519.31;;;14.69;100.00
18918;BME280;9591;52.742;13.650;2022-09-09T00:52:54;100516.72;;;14.67;100.00
18918;BME280;9591;52.742;13.650;2022-09-09T00:55:48;100516.88;;;14.64;100.00
18918;BME280;9591;52.742;13.650;2022-09-09T00:58:37;100517.81;;;14.63;100.00
18918;BME280;9591;52.742;13.650;2022-09-09T01:01:23;100521.50;;;14.61;100.00
18918;BME280;9591;52.742;13.650;2022-09-09T01:04:13;100520.09;;;14.54;100.00
18918;BME280;9591;52.742;13.650;2022-09-09T01:07:10;100522.13;;;14.49;100.00
18918;BME280;9591;52.742;13.650;2022-09-09T01:10:00;100518.94;;;14.42;100.00
18918;BME280;9591;52.742;13.650;2022-09-09T01:12:55;100527.97;;;14.38;100.00
18918;BME280;9591;52.742;13.650;2022-09-09T01:15:47;100540.66;;;14.33;100.00
18918;BME280;9591;52.742;13.650;2022-09-09T01:18:37;100531.91;;;14.31;100.00
18918;BME280;9591;52.742;13.650;2022-09-09T01:21:34;100534.00;;;14.24;100.00
18918;BME280;9591;52.742;13.650;2022-09-09T01:24:27;100539.47;;;14.21;100.00
18918;BME280;9591;52.742;13.650;2022-09-09T01:27:27;100540.56;;;14.17;100.00
18918;BME280;9591;52.742;13.650;2022-09-09T01:30:16;100547.16;;;14.10;100.00
18918;BME280;9591;52.742;13.650;2022-09-09T01:33:11;100538.38;;;14.08;100.00
18918;BME280;9591;52.742;13.650;2022-09-09T01:36:03;100541.25;;;14.03;100.00
18918;BME280;9591;52.742;13.650;2022-09-09T01:39:00;100542.34;;;13.99;100.00
18918;BME280;9591;52.742;13.650;2022-09-09T01:41:47;100537.09;;;13.98;100.00
18918;BME280;9591;52.742;13.650;2022-09-09T01:44:37;100537.25;;;13.95;100.00
18918;BME280;9591;52.742;13.650;2022-09-09T01:47:25;100533.78;;;13.93;100.00
18918;BME280;9591;52.742;13.650;2022-09-09T01:50:26;100537.63;;;13.87;100.00
18918;BME280;9591;52.742;13.650;2022-09-09T01:53:17;100536.94;;;13.84;100.00
18918;BME280;9591;52.742;13.650;2022-09-09T01:56:21;100538.25;;;13.75;100.00
18918;BME280;9591;52.742;13.650;2022-09-09T01:59:40;100535.66;;;13.73;100.00
18918;BME280;9591;52.742;13.650;2022-09-09T02:02:32;100545.44;;;13.73;100.00
18918;BME280;9591;52.742;13.650;2022-09-09T02:05:37;100522.00;;;13.62;100.00
18918;BME280;9591;52.742;13.650;2022-09-09T02:08:39;100542.72;;;13.74;100.00
18918;BME280;9591;52.742;13.650;2022-09-09T02:11:29;100542.06;;;13.69;100.00
18918;BME280;9591;52.742;13.650;2022-09-09T02:14:39;100550.53;;;13.77;100.00
18918;BME280;9591;52.742;13.650;2022-09-09T02:17:31;100542.63;;;13.76;100.00
18918;BME280;9591;52.742;13.650;2022-09-09T02:20:31;100540.69;;;13.80;100.00
18918;BME280;9591;52.742;13.650;2022-09-09T02:23:20;100540.53;;;13.83;100.00
18918;BME280;9591;52.742;13.650;2022-09-09T02:26:12;100544.75;;;13.87;100.00
18918;BME280;9591;52.742;13.650;2022-09-09T02:29:13;100549.78;;;13.93;100.00
18918;BME280;9591;52.742;13.650;2022-09-09T02:32:06;100536.31;;;13.96;100.00
18918;BME280;9591;52.742;13.650;2022-09-09T02:34:58;100551.19;;;14.00;100.00
18918;BME280;9591;52.742;13.650;2022-09-09T02:37:47;100546.59;;;14.03;100.00
18918;BME280;9591;52.742;13.650;2022-09-09T02:40:36;100550.19;;;14.02;100.00
18918;BME280;9591;52.742;13.650;2022-09-09T02:43:24;100548.31;;;14.04;100.00
18918;BME280;9591;52.742;13.650;2022-09-09T02:46:24;100550.66;;;14.10;100.00
18918;BME280;9591;52.742;13.650;2022-09-09T02:49:19;100540.56;;;14.17;100.00
18918;BME280;9591;52.742;13.650;2022-09-09T02:52:14;100557.66;;;14.13;100.00
18918;BME280;9591;52.742;13.650;2022-09-09T02:55:06;100562.25;;;14.09;100.00
18918;BME280;9591;52.742;13.650;2022-09-09T02:57:56;100526.66;;;13.93;100.00
18918;BME280;9591;52.742;13.650;2022-09-09T03:00:47;100547.59;;;14.01;100.00
18918;BME280;9591;52.742;13.650;2022-09-09T03:03:36;100553.22;;;13.95;100.00
18918;BME280;9591;52.742;13.650;2022-09-09T03:06:28;100547.25;;;13.90;100.00
18918;BME280;9591;52.742;13.650;2022-09-09T03:09:24;100547.50;;;13.85;100.00
18918;BME280;9591;52.742;13.650;2022-09-09T03:12:14;100543.34;;;13.80;100.00
18918;BME280;9591;52.742;13.650;2022-09-09T03:15:01;100547.25;;;13.72;100.00
18918;BME280;9591;52.742;13.650;2022-09-09T03:17:49;100558.09;;;13.68;100.00
18918;BME280;9591;52.742;13.650;2022-09-09T03:20:37;100552.06;;;13.64;100.00
18918;BME280;9591;52.742;13.650;2022-09-09T03:23:26;100554.88;;;13.61;100.00
18918;BME280;9591;52.742;13.650;2022-09-09T03:26:14;100557.59;;;13.60;100.00
18918;BME280;9591;52.742;13.650;2022-09-09T03:29:04;100559.63;;;13.55;100.00
18918;BME280;9591;52.742;13.650;2022-09-09T03:31:52;100557.09;;;13.52;100.00
18918;BME280;9591;52.742;13.650;2022-09-09T03:34:40;100553.72;;;13.48;100.00
18918;BME280;9591;52.742;13.650;2022-09-09T03:37:30;100561.78;;;13.47;100.00
18918;BME280;9591;52.742;13.650;2022-09-09T03:40:18;100555.59;;;13.46;100.00
18918;BME280;9591;52.742;13.650;2022-09-09T03:43:06;100557.53;;;13.42;100.00
18918;BME280;9591;52.742;13.650;2022-09-09T03:45:53;100554.16;;;13.39;100.00
18918;BME280;9591;52.742;13.650;2022-09-09T03:48:43;100554.44;;;13.33;100.00
18918;BME280;9591;52.742;13.650;2022-09-09T03:51:30;100554.34;;;13.34;100.00
18918;BME280;9591;52.742;13.650;2022-09-09T03:54:16;100551.13;;;13.28;100.00
18918;BME280;9591;52.742;13.650;2022-09-09T03:57:05;100563.63;;;13.26;100.00
18918;BME280;9591;52.742;13.650;2022-09-09T03:59:51;100563.75;;;13.23;100.00
18918;BME280;9591;52.742;13.650;2022-09-09T04:02:38;100566.50;;;13.21;100.00
18918;BME280;9591;52.742;13.650;2022-09-09T04:05:25;100570.09;;;13.20;100.00
18918;BME280;9591;52.742;13.650;2022-09-09T04:08:12;100571.88;;;13.20;100.00
18918;BME280;9591;52.742;13.650;2022-09-09T04:10:59;100583.56;;;13.16;100.00
18918;BME280;9591;52.742;13.650;2022-09-09T04:13:48;100581.81;;;13.14;100.00
18918;BME280;9591;52.742;13.650;2022-09-09T04:16:37;100579.31;;;13.11;100.00
18918;BME280;9591;52.742;13.650;2022-09-09T04:19:23;100577.44;;;13.13;100.00
18918;BME280;9591;52.742;13.650;2022-09-09T04:22:11;100578.38;;;13.12;100.00
18918;BME280;9591;52.742;13.650;2022-09-09T04:24:57;100580.25;;;13.10;100.00
18918;BME280;9591;52.742;13.650;2022-09-09T04:27:46;100584.69;;;13.10;100.00
18918;BME280;9591;52.742;13.650;2022-09-09T04:30:34;100581.03;;;13.12;100.00
18918;BME280;9591;52.742;13.650;2022-09-09T04:33:23;100584.31;;;13.19;100.00
18918;BME280;9591;52.742;13.650;2022-09-09T04:36:12;100579.94;;;13.18;100.00
18918;BME280;9591;52.742;13.650;2022-09-09T04:38:59;100574.53;;;13.20;100.00
18918;BME280;9591;52.742;13.650;2022-09-09T04:41:46;100579.00;;;13.19;100.00
18918;BME280;9591;52.742;13.650;2022-09-09T04:44:33;100575.53;;;13.17;100.00
18918;BME280;9591;52.742;13.650;2022-09-09T04:47:22;100580.00;;;13.17;100.00
18918;BME280;9591;52.742;13.650;2022-09-09T04:50:08;100580.84;;;13.17;100.00
18918;BME280;9591;52.742;13.650;2022-09-09T04:52:55;100588.00;;;13.15;100.00
18918;BME280;9591;52.742;13.650;2022-09-09T04:55:42;100591.50;;;13.17;100.00
18918;BME280;9591;52.742;13.650;2022-09-09T04:58:28;100595.19;;;13.13;100.00
18918;BME280;9591;52.742;13.650;2022-09-09T05:01:17;100602.00;;;13.20;100.00
18918;BME280;9591;52.742;13.650;2022-09-09T05:04:07;100606.31;;;13.23;100.00
18918;BME280;9591;52.742;13.650;2022-09-09T05:06:54;100611.34;;;13.29;100.00
18918;BME280;9591;52.742;13.650;2022-09-09T05:09:42;100604.75;;;13.37;100.00
18918;BME280;9591;52.742;13.650;2022-09-09T05:12:30;100613.84;;;13.52;100.00
18918;BME280;9591;52.742;13.650;2022-09-09T05:15:17;100612.41;;;13.64;100.00
18918;BME280;9591;52.742;13.650;2022-09-09T05:18:04;100608.75;;;13.66;100.00
18918;BME280;9591;52.742;13.650;2022-09-09T05:20:58;100608.81;;;13.65;100.00
18918;BME280;9591;52.742;13.650;2022-09-09T05:23:49;100606.72;;;13.71;100.00
18918;BME280;9591;52.742;13.650;2022-09-09T05:26:37;100604.94;;;13.72;100.00
18918;BME280;9591;52.742;13.650;2022-09-09T05:29:25;100607.22;;;13.80;100.00
18918;BME280;9591;52.742;13.650;2022-09-09T05:32:13;100605.22;;;13.85;100.00
18918;BME280;9591;52.742;13.650;2022-09-09T05:35:06;100604.03;;;13.90;100.00
18918;BME280;9591;52.742;13.650;2022-09-09T05:37:59;100608.84;;;14.01;100.00
18918;BME280;9591;52.742;13.650;2022-09-09T05:40:47;100610.56;;;14.02;100.00
18918;BME280;9591;52.742;13.650;2022-09-09T05:43:35;100613.88;;;14.07;100.00
18918;BME280;9591;52.742;13.650;2022-09-09T05:46:23;100613.28;;;14.19;100.00
18918;BME280;9591;52.742;13.650;2022-09-09T05:49:13;100615.25;;;14.33;100.00
18918;BME280;9591;52.742;13.650;2022-09-09T05:52:01;100616.91;;;14.35;100.00
18918;BME280;9591;52.742;13.650;2022-09-09T05:54:50;100619.72;;;14.32;100.00
18918;BME280;9591;52.742;13.650;2022-09-09T05:57:38;100621.69;;;14.29;100.00
18918;BME280;9591;52.742;13.650;2022-09-09T06:00:24;100625.50;;;14.42;100.00
18918;BME280;9591;52.742;13.650;2022-09-09T06:03:11;100617.13;;;14.50;100.00
18918;BME280;9591;52.742;13.650;2022-09-09T06:06:00;100620.13;;;14.61;100.00
18918;BME280;9591;52.742;13.650;2022-09-09T06:08:49;100617.91;;;14.69;100.00
18918;BME280;9591;52.742;13.650;2022-09-09T06:11:39;100616.72;;;14.74;100.00
18918;BME280;9591;52.742;13.650;2022-09-09T06:14:26;100616.56;;;14.77;100.00
18918;BME280;9591;52.742;13.650;2022-09-09T06:17:16;100613.81;;;14.96;100.00
18918;BME280;9591;52.742;13.650;2022-09-09T06:20:04;100617.34;;;14.97;100.00
18918;BME280;9591;52.742;13.650;2022-09-09T06:22:51;100617.41;;;14.95;100.00
18918;BME280;9591;52.742;13.650;2022-09-09T06:25:37;100612.69;;;15.00;100.00
18918;BME280;9591;52.742;13.650;2022-09-09T06:28:27;100618.19;;;15.15;100.00
18918;BME280;9591;52.742;13.650;2022-09-09T06:31:16;100618.19;;;15.15;100.00
18918;BME280;9591;52.742;13.650;2022-09-09T06:34:12;100621.38;;;15.21;100.00
18918;BME280;9591;52.742;13.650;2022-09-09T06:37:03;100626.72;;;15.21;100.00
18918;BME280;9591;52.742;13.650;2022-09-09T06:39:59;100632.41;;;15.48;100.00
18918;BME280;9591;52.742;13.650;2022-09-09T06:42:47;100632.06;;;15.54;100.00
18918;BME280;9591;52.742;13.650;2022-09-09T06:45:58;100634.50;;;15.74;100.00
18918;BME280;9591;52.742;13.650;2022-09-09T06:48:45;100633.91;;;15.85;100.00
18918;BME280;9591;52.742;13.650;2022-09-09T06:51:35;100632.81;;;15.89;100.00
18918;BME280;9591;52.742;13.650;2022-09-09T06:54:24;100633.50;;;15.93;100.00
18918;BME280;9591;52.742;13.650;2022-09-09T06:57:11;100633.66;;;15.90;100.00
18918;BME280;9591;52.742;13.650;2022-09-09T07:00:19;100624.03;;;16.03;100.00
18918;BME280;9591;52.742;13.650;2022-09-09T07:03:07;100625.06;;;16.00;100.00
18918;BME280;9591;52.742;13.650;2022-09-09T07:05:54;100634.69;;;16.03;100.00
18918;BME280;9591;52.742;13.650;2022-09-09T07:08:48;100612.66;;;15.84;100.00
18918;BME280;9591;52.742;13.650;2022-09-09T07:11:44;100648.22;;;16.16;100.00
18918;BME280;9591;52.742;13.650;2022-09-09T07:14:32;100641.84;;;16.34;100.00
18918;BME280;9591;52.742;13.650;2022-09-09T07:17:22;100644.88;;;16.28;100.00
18918;BME280;9591;52.742;13.650;2022-09-09T07:20:10;100637.78;;;16.43;100.00
18918;BME280;9591;52.742;13.650;2022-09-09T07:22:59;100633.00;;;16.48;100.00
18918;BME280;9591;52.742;13.650;2022-09-09T07:25:46;100640.66;;;16.54;100.00
18918;BME280;9591;52.742;13.650;2022-09-09T07:28:35;100627.63;;;16.33;100.00
18918;BME280;9591;52.742;13.650;2022-09-09T07:31:25;100638.72;;;16.42;100.00
18918;BME280;9591;52.742;13.650;2022-09-09T07:34:13;100642.47;;;16.53;100.00
18918;BME280;9591;52.742;13.650;2022-09-09T07:37:01;100649.63;;;16.68;100.00
18918;BME280;9591;52.742;13.650;2022-09-09T07:39:49;100654.34;;;16.79;100.00
18918;BME280;9591;52.742;13.650;2022-09-09T07:42:37;100644.03;;;16.73;100.00
18918;BME280;9591;52.742;13.650;2022-09-09T07:45:24;100649.22;;;16.90;100.00
18918;BME280;9591;52.742;13.650;2022-09-09T07:48:15;100640.84;;;16.96;100.00
18918;BME280;9591;52.742;13.650;2022-09-09T07:51:07;100637.00;;;16.86;100.00
18918;BME280;9591;52.742;13.650;2022-09-09T07:53:56;100646.00;;;16.99;100.00
18918;BME280;9591;52.742;13.650;2022-09-09T07:56:44;100651.56;;;17.11;100.00
18918;BME280;9591;52.742;13.650;2022-09-09T07:59:32;100649.28;;;17.04;100.00
18918;BME280;9591;52.742;13.650;2022-09-09T08:02:20;100649.28;;;17.19;100.00
18918;BME280;9591;52.742;13.650;2022-09-09T08:05:07;100652.16;;;17.16;100.00
18918;BME280;9591;52.742;13.650;2022-09-09T08:07:56;100651.41;;;17.42;100.00
18918;BME280;9591;52.742;13.650;2022-09-09T08:10:44;100658.38;;;17.59;100.00
18918;BME280;9591;52.742;13.650;2022-09-09T08:13:31;100653.69;;;17.62;100.00
18918;BME280;9591;52.742;13.650;2022-09-09T08:16:20;100665.97;;;17.81;100.00
18918;BME280;9591;52.742;13.650;2022-09-09T08:19:08;100672.84;;;17.99;100.00
18918;BME280;9591;52.742;13.650;2022-09-09T08:21:56;100667.25;;;18.16;100.00
18918;BME280;9591;52.742;13.650;2022-09-09T08:24:43;100664.38;;;18.19;100.00
18918;BME280;9591;52.742;13.650;2022-09-09T08:27:32;100666.06;;;18.20;100.00
18918;BME280;9591;52.742;13.650;2022-09-09T08:30:19;100664.16;;;18.22;100.00
18918;BME280;9591;52.742;13.650;2022-09-09T08:33:06;100663.63;;;18.44;100.00
18918;BME280;9591;52.742;13.650;2022-09-09T08:35:53;100662.03;;;18.54;100.00
18918;BME280;9591;52.742;13.650;2022-09-09T08:38:41;100669.75;;;18.46;100.00
18918;BME280;9591;52.742;13.650;2022-09-09T08:41:38;100663.47;;;18.60;100.00
18918;BME280;9591;52.742;13.650;2022-09-09T08:44:45;100666.16;;;18.60;100.00
18918;BME280;9591;52.742;13.650;2022-09-09T08:47:45;100672.84;;;18.67;100.00
18918;BME280;9591;52.742;13.650;2022-09-09T08:50:40;100671.06;;;18.53;100.00
18918;BME280;9591;52.742;13.650;2022-09-09T08:53:42;100678.25;;;18.53;100.00
18918;BME280;9591;52.742;13.650;2022-09-09T08:56:32;100679.91;;;18.41;100.00
18918;BME280;9591;52.742;13.650;2022-09-09T08:59:20;100684.81;;;18.34;100.00
18918;BME280;9591;52.742;13.650;2022-09-09T09:02:15;100679.63;;;18.31;100.00
18918;BME280;9591;52.742;13.650;2022-09-09T09:05:17;100676.88;;;18.60;100.00
18918;BME280;9591;52.742;13.650;2022-09-09T09:08:14;100670.16;;;18.67;100.00
18918;BME280;9591;52.742;13.650;2022-09-09T09:11:04;100668.56;;;18.64;100.00
18918;BME280;9591;52.742;13.650;2022-09-09T09:13:55;100673.44;;;18.58;100.00
18918;BME280;9591;52.742;13.650;2022-09-09T09:16:50;100674.97;;;18.62;100.00
18918;BME280;9591;52.742;13.650;2022-09-09T09:19:40;100669.03;;;18.57;100.00
18918;BME280;9591;52.742;13.650;2022-09-09T09:22:35;100691.34;;;18.57;100.00
18918;BME280;9591;52.742;13.650;2022-09-09T09:25:30;100676.53;;;18.52;100.00
18918;BME280;9591;52.742;13.650;2022-09-09T09:28:22;100677.66;;;18.62;100.00
18918;BME280;9591;52.742;13.650;2022-09-09T09:31:14;100674.50;;;18.82;100.00
18918;BME280;9591;52.742;13.650;2022-09-09T09:34:04;100675.50;;;19.07;100.00
18918;BME280;9591;52.742;13.650;2022-09-09T09:36:56;100670.47;;;19.02;100.00
18918;BME280;9591;52.742;13.650;2022-09-09T09:39:46;100677.13;;;19.22;100.00
18918;BME280;9591;52.742;13.650;2022-09-09T09:42:51;100679.88;;;19.60;100.00
18918;BME280;9591;52.742;13.650;2022-09-09T09:45:42;100676.53;;;19.69;100.00
18918;BME280;9591;52.742;13.650;2022-09-09T09:48:57;100666.53;;;20.20;100.00
18918;BME280;9591;52.742;13.650;2022-09-09T09:51:44;100673.16;;;20.40;100.00
18918;BME280;9591;52.742;13.650;2022-09-09T09:54:38;100682.78;;;20.55;100.00
18918;BME280;9591;52.742;13.650;2022-09-09T09:57:28;100673.56;;;20.71;100.00
18918;BME280;9591;52.742;13.650;2022-09-09T10:00:22;100670.94;;;20.93;100.00
18918;BME280;9591;52.742;13.650;2022-09-09T10:03:24;100668.75;;;20.98;100.00
18918;BME280;9591;52.742;13.650;2022-09-09T10:06:13;100670.72;;;20.96;100.00
18918;BME280;9591;52.742;13.650;2022-09-09T10:09:01;100671.91;;;20.92;100.00
18918;BME280;9591;52.742;13.650;2022-09-09T10:11:55;100677.41;;;20.90;100.00
18918;BME280;9591;52.742;13.650;2022-09-09T10:14:48;100649.94;;;20.63;100.00
18918;BME280;9591;52.742;13.650;2022-09-09T10:17:44;100675.28;;;20.72;100.00
18918;BME280;9591;52.742;13.650;2022-09-09T10:20:40;100666.59;;;20.68;100.00
18918;BME280;9591;52.742;13.650;2022-09-09T10:23:45;100673.19;;;20.64;100.00
18918;BME280;9591;52.742;13.650;2022-09-09T10:26:39;100672.66;;;20.59;100.00
18918;BME280;9591;52.742;13.650;2022-09-09T10:29:43;100669.81;;;20.84;100.00
18918;BME280;9591;52.742;13.650;2022-09-09T10:32:41;100679.06;;;21.04;100.00
18918;BME280;9591;52.742;13.650;2022-09-09T10:35:34;100673.94;;;21.12;100.00
18918;BME280;9591;52.742;13.650;2022-09-09T10:38:24;100674.16;;;21.33;100.00
18918;BME280;9591;52.742;13.650;2022-09-09T10:41:19;100674.69;;;21.49;100.00
18918;BME280;9591;52.742;13.650;2022-09-09T10:44:29;100668.28;;;21.73;100.00
18918;BME280;9591;52.742;13.650;2022-09-09T10:47:36;100683.59;;;21.72;100.00
18918;BME280;9591;52.742;13.650;2022-09-09T10:50:41;100680.91;;;21.72;100.00
18918;BME280;9591;52.742;13.650;2022-09-09T10:53:56;100685.44;;;21.72;100.00
18918;BME280;9591;52.742;13.650;2022-09-09T10:56:53;100676.16;;;21.65;100.00
18918;BME280;9591;52.742;13.650;2022-09-09T10:59:46;100676.53;;;21.60;100.00
18918;BME280;9591;52.742;13.650;2022-09-09T11:02:35;100679.06;;;21.73;100.00
18918;BME280;9591;52.742;13.650;2022-09-09T11:05:28;100679.94;;;21.73;100.00
18918;BME280;9591;52.742;13.650;2022-09-09T11:08:19;100687.66;;;21.89;100.00
18918;BME280;9591;52.742;13.650;2022-09-09T11:11:12;100686.91;;;21.76;100.00
18918;BME280;9591;52.742;13.650;2022-09-09T11:14:07;100674.41;;;21.75;100.00
18918;BME280;9591;52.742;13.650;2022-09-09T11:16:58;100682.03;;;21.92;100.00
18918;BME280;9591;52.742;13.650;2022-09-09T11:19:47;100680.31;;;21.91;100.00
18918;BME280;9591;52.742;13.650;2022-09-09T11:22:37;100680.31;;;21.91;100.00
18918;BME280;9591;52.742;13.650;2022-09-09T11:25:29;100674.06;;;21.79;100.00
18918;BME280;9591;52.742;13.650;2022-09-09T11:28:36;100673.22;;;22.12;100.00
18918;BME280;9591;52.742;13.650;2022-09-09T11:31:41;100675.03;;;22.34;100.00
18918;BME280;9591;52.742;13.650;2022-09-09T11:34:53;100675.19;;;22.53;100.00
18918;BME280;9591;52.742;13.650;2022-09-09T11:37:56;100677.38;;;22.60;100.00
18918;BME280;9591;52.742;13.650;2022-09-09T11:40:55;100680.19;;;22.58;98.80
18918;BME280;9591;52.742;13.650;2022-09-09T11:43:46;100682.16;;;22.56;96.32
18918;BME280;9591;52.742;13.650;2022-09-09T11:46:36;100663.00;;;22.38;97.14
18918;BME280;9591;52.742;13.650;2022-09-09T11:49:29;100676.09;;;22.43;100.00
18918;BME280;9591;52.742;13.650;2022-09-09T11:52:36;100675.75;;;22.36;100.00
18918;BME280;9591;52.742;13.650;2022-09-09T11:55:26;100668.75;;;22.45;100.00
18918;BME280;9591;52.742;13.650;2022-09-09T11:58:16;100670.44;;;22.46;100.00
18918;BME280;9591;52.742;13.650;2022-09-09T12:01:26;100668.13;;;22.41;100.00
18918;BME280;9591;52.742;13.650;2022-09-09T12:04:29;100664.50;;;22.09;100.00
18918;BME280;9591;52.742;13.650;2022-09-09T12:07:30;100661.47;;;22.02;100.00
18918;BME280;9591;52.742;13.650;2022-09-09T12:10:22;100661.47;;;22.02;100.00
18918;BME280;9591;52.742;13.650;2022-09-09T12:13:20;100656.78;;;22.04;100.00
18918;BME280;9591;52.742;13.650;2022-09-09T12:16:28;100660.09;;;22.08;95.71
18918;BME280;9591;52.742;13.650;2022-09-09T12:19:19;100662.78;;;21.97;100.00
18918;BME280;9591;52.742;13.650;2022-09-09T12:22:22;100652.38;;;22.03;100.00
18918;BME280;9591;52.742;13.650;2022-09-09T12:25:23;100663.13;;;22.26;99.06
18918;BME280;9591;52.742;13.650;2022-09-09T12:28:16;100654.53;;;22.32;98.16
18918;BME280;9591;52.742;13.650;2022-09-09T12:31:06;100657.47;;;22.40;93.52
18918;BME280;9591;52.742;13.650;2022-09-09T12:34:06;100653.66;;;22.42;92.77
18918;BME280;9591;52.742;13.650;2022-09-09T12:37:00;100647.38;;;22.53;95.10
18918;BME280;9591;52.742;13.650;2022-09-09T12:39:54;100647.31;;;22.64;95.55
18918;BME280;9591;52.742;13.650;2022-09-09T12:42:43;100642.38;;;22.69;92.93
18918;BME280;9591;52.742;13.650;2022-09-09T12:45:31;100637.16;;;22.88;91.56
18918;BME280;9591;52.742;13.650;2022-09-09T12:48:21;100632.31;;;22.71;100.00
18918;BME280;9591;52.742;13.650;2022-09-09T12:51:18;100633.50;;;22.78;97.09
18918;BME280;9591;52.742;13.650;2022-09-09T12:54:05;100639.84;;;22.56;100.00
18918;BME280;9591;52.742;13.650;2022-09-09T12:56:52;100628.75;;;22.71;97.02
18918;BME280;9591;52.742;13.650;2022-09-09T12:59:42;100624.63;;;22.55;97.57
18918;BME280;9591;52.742;13.650;2022-09-09T13:02:30;100632.94;;;22.43;97.96
18918;BME280;9591;52.742;13.650;2022-09-09T13:05:20;100637.63;;;22.30;96.63
18918;BME280;9591;52.742;13.650;2022-09-09T13:08:11;100641.09;;;22.09;92.32
18918;BME280;9591;52.742;13.650;2022-09-09T13:11:00;100638.16;;;22.12;92.96
18918;BME280;9591;52.742;13.650;2022-09-09T13:13:52;100641.81;;;22.00;93.28
18918;BME280;9591;52.742;13.650;2022-09-09T13:16:42;100638.88;;;22.14;96.58
18918;BME280;9591;52.742;13.650;2022-09-09T13:19:32;100638.88;;;22.14;99.05
18918;BME280;9591;52.742;13.650;2022-09-09T13:22:28;100636.31;;;22.13;100.00
18918;BME280;9591;52.742;13.650;2022-09-09T13:25:20;100640.44;;;22.28;93.88
18918;BME280;9591;52.742;13.650;2022-09-09T13:28:20;100631.63;;;22.26;96.59
18918;BME280;9591;52.742;13.650;2022-09-09T13:31:20;100633.38;;;22.16;99.97
18918;BME280;9591;52.742;13.650;2022-09-09T13:34:12;100628.56;;;22.19;99.93
18918;BME280;9591;52.742;13.650;2022-09-09T13:37:00;100625.28;;;22.05;96.15
18918;BME280;9591;52.742;13.650;2022-09-09T13:39:51;100626.13;;;22.16;100.00
18918;BME280;9591;52.742;13.650;2022-09-09T13:42:44;100614.38;;;22.06;100.00
18918;BME280;9591;52.742;13.650;2022-09-09T13:45:31;100614.38;;;22.06;100.00
18918;BME280;9591;52.742;13.650;2022-09-09T13:48:20;100615.09;;;22.19;100.00
18918;BME280;9591;52.742;13.650;2022-09-09T13:51:30;100606.28;;;22.17;99.91
18918;BME280;9591;52.742;13.650;2022-09-09T13:54:20;100609.00;;;22.06;100.00
18918;BME280;9591;52.742;13.650;2022-09-09T13:57:16;100610.91;;;22.27;98.60
18918;BME280;9591;52.742;13.650;2022-09-09T14:00:09;100612.25;;;22.32;94.22
18918;BME280;9591;52.742;13.650;2022-09-09T14:02:59;100609.06;;;22.27;97.06
18918;BME280;9591;52.742;13.650;2022-09-09T14:05:48;100613.94;;;22.33;97.31
18918;BME280;9591;52.742;13.650;2022-09-09T14:08:36;100614.56;;;22.37;98.85
18918;BME280;9591;52.742;13.650;2022-09-09T14:11:24;100616.66;;;22.33;100.00
18918;BME280;9591;52.742;13.650;2022-09-09T14:14:11;100622.81;;;22.24;100.00
18918;BME280;9591;52.742;13.650;2022-09-09T14:17:00;100617.25;;;22.37;98.62
18918;BME280;9591;52.742;13.650;2022-09-09T14:19:51;100613.16;;;22.74;97.58
18918;BME280;9591;52.742;13.650;2022-09-09T14:22:38;100615.78;;;22.97;94.87
18918;BME280;9591;52.742;13.650;2022-09-09T14:25:28;100618.34;;;23.19;93.66
18918;BME280;9591;52.742;13.650;2022-09-09T14:28:17;100605.56;;;23.21;97.03
18918;BME280;9591;52.742;13.650;2022-09-09T14:31:24;100617.41;;;23.09;89.92
18918;BME280;9591;52.742;13.650;2022-09-09T14:34:14;100608.00;;;22.82;89.04
18918;BME280;9591;52.742;13.650;2022-09-09T14:37:02;100604.91;;;22.76;90.33
18918;BME280;9591;52.742;13.650;2022-09-09T14:39:49;100603.06;;;22.87;91.82
18918;BME280;9591;52.742;13.650;2022-09-09T14:42:38;100598.41;;;22.78;91.99
18918;BME280;9591;52.742;13.650;2022-09-09T14:45:26;100606.63;;;22.88;85.99
18918;BME280;9591;52.742;13.650;2022-09-09T14:48:13;100605.31;;;22.71;92.32